HKMO 230700Z 17011KT 9999 BKN025 27/19 Q1017 NOSIG
From batch tds/metars/production/2022/9/23/h07_m55_metars.cache.csv.gz
Observed at (13 days ago)
Identifier HKMO
talk